createdAt,value
2022-11-03T00:02:11.709Z,5.70
2022-11-03T00:04:40.041Z,6.10
2022-11-03T00:07:08.304Z,8.77
2022-11-03T00:09:36.935Z,8.33
2022-11-03T00:12:06.210Z,7.03
2022-11-03T00:14:35.793Z,5.07
2022-11-03T00:17:04.051Z,5.80
2022-11-03T00:19:32.298Z,5.57
2022-11-03T00:22:00.664Z,5.33
2022-11-03T00:24:28.927Z,6.20
2022-11-03T00:26:57.142Z,4.40
2022-11-03T00:29:25.856Z,5.10
2022-11-03T00:31:55.447Z,4.87
2022-11-03T00:34:23.669Z,4.57
2022-11-03T00:36:51.906Z,6.67
2022-11-03T00:39:20.145Z,5.47
2022-11-03T00:41:48.415Z,7.93
2022-11-03T00:44:16.597Z,6.37
2022-11-03T00:46:44.842Z,4.33
2022-11-03T00:49:14.408Z,6.10
2022-11-03T00:51:42.617Z,5.47
2022-11-03T00:54:11.115Z,6.60
2022-11-03T00:56:42.322Z,6.00
2022-11-03T00:59:11.417Z,5.87
2022-11-03T01:01:47.012Z,8.53
2022-11-03T01:04:36.084Z,6.93
2022-11-03T01:07:07.609Z,6.07
2022-11-03T01:09:40.684Z,7.60
2022-11-03T01:12:12.322Z,7.43
2022-11-03T01:14:44.164Z,5.17
2022-11-03T01:17:17.072Z,8.07
2022-11-03T01:19:47.341Z,6.00
2022-11-03T01:22:16.851Z,4.53
2022-11-03T01:24:45.850Z,6.27
2022-11-03T01:27:18.195Z,6.97
2022-11-03T01:29:46.777Z,6.03
2022-11-03T01:32:15.578Z,6.90
2022-11-03T01:34:43.843Z,8.83
2022-11-03T01:37:13.369Z,7.73
2022-11-03T01:39:41.620Z,6.00
2022-11-03T01:42:14.344Z,7.40
2022-11-03T01:44:47.926Z,7.13
2022-11-03T01:47:24.306Z,5.77
2022-11-03T01:49:57.890Z,7.03
2022-11-03T01:52:31.175Z,6.97
2022-11-03T01:55:04.873Z,8.43
2022-11-03T01:57:38.491Z,9.07
2022-11-03T02:00:08.626Z,7.37
2022-11-03T02:02:44.089Z,6.07
2022-11-03T02:05:13.395Z,8.40
2022-11-03T02:07:49.697Z,12.50
2022-11-03T02:10:19.069Z,9.13
2022-11-03T02:12:48.420Z,7.87
2022-11-03T02:15:21.494Z,8.03
2022-11-03T02:17:53.038Z,10.63
2022-11-03T02:20:25.283Z,8.97
2022-11-03T02:23:22.500Z,8.33
2022-11-03T02:25:54.001Z,6.27
2022-11-03T02:28:25.730Z,8.80
2022-11-03T02:31:05.212Z,7.23
2022-11-03T02:33:49.837Z,7.37
2022-11-03T02:36:24.841Z,7.57
2022-11-03T02:38:59.292Z,8.40
2022-11-03T02:41:30.857Z,7.83
2022-11-03T02:44:01.099Z,7.07
2022-11-03T02:46:31.893Z,6.80
2022-11-03T02:49:01.501Z,7.47
2022-11-03T02:51:29.750Z,7.00
2022-11-03T02:54:07.994Z,6.37
2022-11-03T02:56:44.439Z,6.00
2022-11-03T02:59:16.606Z,6.63
2022-11-03T03:01:50.993Z,6.70
2022-11-03T03:04:24.346Z,10.43
2022-11-03T03:07:02.994Z,12.33
2022-11-03T03:09:38.260Z,8.07
2022-11-03T03:12:10.142Z,8.10
2022-11-03T03:14:41.247Z,6.13
2022-11-03T03:17:15.708Z,8.37
2022-11-03T03:19:51.538Z,9.07
2022-11-03T03:22:29.653Z,7.90
2022-11-03T03:25:03.741Z,8.73
2022-11-03T03:27:35.549Z,7.57
2022-11-03T03:30:07.753Z,6.37
2022-11-03T03:32:39.827Z,9.60
2022-11-03T03:35:13.825Z,6.90
2022-11-03T03:37:45.740Z,9.23
2022-11-03T03:40:20.110Z,6.27
2022-11-03T03:42:51.506Z,7.10
2022-11-03T03:45:21.732Z,5.53
2022-11-03T03:47:53.640Z,6.70
2022-11-03T03:50:28.321Z,7.90
2022-11-03T03:52:58.559Z,5.57
2022-11-03T03:55:35.607Z,5.50
2022-11-03T03:58:07.517Z,11.17
2022-11-03T04:00:39.965Z,10.10
2022-11-03T04:03:15.341Z,6.37
2022-11-03T04:05:43.803Z,7.73
2022-11-03T04:08:12.499Z,6.30
2022-11-03T04:10:40.781Z,6.37
2022-11-03T04:13:43.277Z,7.60
2022-11-03T04:16:29.027Z,5.97
2022-11-03T04:19:14.718Z,8.87
2022-11-03T04:22:00.415Z,8.13
2022-11-03T04:24:28.961Z,7.63
2022-11-03T04:27:03.652Z,5.73
2022-11-03T04:29:33.213Z,4.90
2022-11-03T04:32:01.515Z,5.00
2022-11-03T04:34:29.797Z,7.37
2022-11-03T04:36:57.942Z,5.00
2022-11-03T04:39:26.129Z,7.50
2022-11-03T04:41:54.390Z,6.10
2022-11-03T04:44:22.607Z,5.23
2022-11-03T04:46:54.662Z,4.87
2022-11-03T04:49:25.117Z,5.10
2022-11-03T04:51:58.726Z,3.93
2022-11-03T04:54:27.511Z,4.07
2022-11-03T04:56:55.706Z,5.20
2022-11-03T04:59:23.999Z,4.77
2022-11-03T05:01:53.647Z,5.53
2022-11-03T05:04:29.014Z,4.37
2022-11-03T05:06:57.370Z,6.67
2022-11-03T05:09:31.249Z,5.70
2022-11-03T05:11:59.456Z,6.50
2022-11-03T05:14:30.967Z,8.20
2022-11-03T05:17:03.464Z,8.00
2022-11-03T05:19:35.370Z,8.63
2022-11-03T05:22:06.170Z,7.97
2022-11-03T05:24:36.922Z,7.47
2022-11-03T05:27:05.295Z,8.83
2022-11-03T05:29:39.234Z,10.87
2022-11-03T05:32:15.418Z,10.07
2022-11-03T05:34:45.585Z,11.37
2022-11-03T05:37:27.301Z,12.77
2022-11-03T05:39:59.600Z,13.87
2022-11-03T05:42:35.342Z,15.77
2022-11-03T05:45:12.070Z,13.37
2022-11-03T05:47:42.254Z,16.07
2022-11-03T05:50:21.019Z,13.83
2022-11-03T05:52:51.659Z,11.50
2022-11-03T05:55:29.445Z,17.50
2022-11-03T05:58:00.447Z,13.27
2022-11-03T06:00:34.274Z,13.73
2022-11-03T06:03:04.637Z,12.77
2022-11-03T06:05:34.771Z,18.83
2022-11-03T06:08:11.926Z,11.93
2022-11-03T06:10:47.472Z,14.80
2022-11-03T06:13:20.772Z,14.93
2022-11-03T06:15:53.002Z,13.00
2022-11-03T06:18:24.670Z,14.77
2022-11-03T06:20:56.919Z,13.90
2022-11-03T06:23:25.291Z,12.80
2022-11-03T06:25:55.579Z,16.53
2022-11-03T06:28:27.972Z,13.20
2022-11-03T06:30:56.604Z,14.83
2022-11-03T06:33:29.030Z,11.33
2022-11-03T06:36:02.474Z,15.67
2022-11-03T06:38:32.499Z,12.83
2022-11-03T06:41:00.720Z,16.20
2022-11-03T06:43:41.731Z,13.27
2022-11-03T06:46:16.530Z,17.87
2022-11-03T06:48:46.439Z,12.87
2022-11-03T06:51:21.474Z,18.63
2022-11-03T06:53:51.703Z,18.67
2022-11-03T06:56:23.831Z,21.43
2022-11-03T06:58:54.200Z,17.00
2022-11-03T07:01:24.828Z,15.33
2022-11-03T07:03:59.310Z,19.17
2022-11-03T07:06:38.346Z,20.53
2022-11-03T07:09:09.926Z,25.90
2022-11-03T07:11:49.889Z,21.27
2022-11-03T07:14:20.884Z,20.93
2022-11-03T07:16:52.163Z,27.20
2022-11-03T07:19:25.055Z,19.73
2022-11-03T07:21:56.112Z,22.47
2022-11-03T07:24:27.664Z,22.77
2022-11-03T07:27:01.272Z,24.80
2022-11-03T07:29:32.034Z,19.47
2022-11-03T07:32:01.359Z,20.73
2022-11-03T07:34:34.565Z,21.93
2022-11-03T07:37:02.920Z,23.37
2022-11-03T07:39:36.350Z,24.33
2022-11-03T07:42:12.955Z,22.47
2022-11-03T07:44:42.101Z,23.80
2022-11-03T07:47:14.911Z,21.30
2022-11-03T07:49:44.556Z,18.50
2022-11-03T07:52:17.472Z,19.07
2022-11-03T07:54:45.703Z,19.03
2022-11-03T07:57:21.118Z,20.77
2022-11-03T07:59:52.045Z,20.87
2022-11-03T08:02:32.124Z,22.30
2022-11-03T08:05:02.216Z,19.53
2022-11-03T08:07:32.587Z,21.17
2022-11-03T08:10:00.904Z,22.00
2022-11-03T08:12:29.134Z,20.40
2022-11-03T08:14:57.355Z,18.00
2022-11-03T08:17:25.580Z,18.67
2022-11-03T08:19:54.086Z,20.97
2022-11-03T08:22:25.896Z,22.67
2022-11-03T08:24:54.164Z,21.70
2022-11-03T08:27:22.309Z,23.77
2022-11-03T08:29:50.592Z,20.73
2022-11-03T08:32:18.779Z,18.63
2022-11-03T08:34:46.990Z,19.47
2022-11-03T08:37:15.191Z,20.53
2022-11-03T08:39:44.750Z,20.53
2022-11-03T08:42:12.970Z,17.70
2022-11-03T08:44:41.584Z,18.10
2022-11-03T08:47:09.787Z,17.63
2022-11-03T08:49:38.067Z,15.53
2022-11-03T08:52:06.534Z,16.07
2022-11-03T08:54:34.735Z,18.10
2022-11-03T08:57:04.436Z,14.43
2022-11-03T08:59:38.478Z,17.40
2022-11-03T09:02:07.085Z,16.60
2022-11-03T09:04:35.320Z,16.03
2022-11-03T09:07:11.453Z,14.43
2022-11-03T09:12:28.063Z,14.57
2022-11-03T09:14:56.423Z,14.87
2022-11-03T09:17:24.653Z,12.47
2022-11-03T09:19:52.900Z,11.13
2022-11-03T09:22:23.253Z,11.70
2022-11-03T09:24:51.483Z,11.33
2022-11-03T09:27:19.675Z,13.47
2022-11-03T09:30:11.587Z,11.67
2022-11-03T09:32:36.418Z,10.73
2022-11-03T09:35:05.411Z,9.93
2022-11-03T09:37:35.156Z,10.47
2022-11-03T09:40:04.190Z,10.77
2022-11-03T09:42:34.507Z,14.73
2022-11-03T09:45:04.711Z,10.20
2022-11-03T09:47:35.424Z,9.00
2022-11-03T09:50:05.244Z,12.23
2022-11-03T09:52:37.833Z,8.77
2022-11-03T09:55:15.060Z,8.53
2022-11-03T09:57:44.171Z,11.30
2022-11-03T10:00:20.874Z,8.17
2022-11-03T10:02:49.959Z,9.70
2022-11-03T10:05:24.512Z,8.97
2022-11-03T10:07:58.809Z,8.47
2022-11-03T10:10:27.923Z,10.27
2022-11-03T10:12:56.462Z,7.80
2022-11-03T10:15:27.373Z,10.30
2022-11-03T10:17:56.689Z,9.27
2022-11-03T10:20:24.946Z,8.63
2022-11-03T10:22:56.106Z,7.93
2022-11-03T10:25:39.604Z,9.73
2022-11-03T10:28:21.134Z,8.70
2022-11-03T10:31:12.907Z,6.80
2022-11-03T10:33:51.808Z,8.60
2022-11-03T10:36:28.036Z,9.23
2022-11-03T10:38:58.433Z,9.20
2022-11-03T10:41:28.436Z,8.20
2022-11-03T10:44:09.957Z,7.77
2022-11-03T10:46:54.488Z,9.17
2022-11-03T10:49:22.743Z,9.63
2022-11-03T10:51:53.614Z,9.60
2022-11-03T10:54:25.467Z,9.17
2022-11-03T10:56:54.251Z,8.17
2022-11-03T10:59:31.392Z,7.63
2022-11-03T11:02:00.165Z,8.00
2022-11-03T11:05:00.724Z,8.53
2022-11-03T11:07:36.289Z,7.10
2022-11-03T11:10:14.826Z,6.77
2022-11-03T11:13:14.748Z,7.90
2022-11-03T11:15:45.952Z,8.43
2022-11-03T11:19:11.467Z,7.27
2022-11-03T11:22:23.655Z,9.10
2022-11-03T11:25:05.720Z,8.27
2022-11-03T11:28:20.023Z,7.93
2022-11-03T11:30:58.529Z,8.20
2022-11-03T11:33:28.522Z,7.87
2022-11-03T11:36:29.421Z,8.20
2022-11-03T11:39:00.189Z,9.20
2022-11-03T11:42:09.284Z,8.23
2022-11-03T11:45:03.407Z,7.93
2022-11-03T11:47:48.929Z,8.90
2022-11-03T11:50:36.076Z,7.10
2022-11-03T11:53:23.192Z,9.23
2022-11-03T11:55:58.396Z,8.80
2022-11-03T11:58:39.093Z,7.63
2022-11-03T12:01:23.893Z,7.27
2022-11-03T12:03:55.617Z,7.53
2022-11-03T12:06:34.795Z,8.07
2022-11-03T12:09:07.151Z,6.83
2022-11-03T12:11:47.589Z,5.83
2022-11-03T12:14:27.860Z,4.83
2022-11-03T12:16:58.288Z,7.13
2022-11-03T12:19:40.871Z,8.57
2022-11-03T12:22:11.291Z,7.43
2022-11-03T12:24:54.930Z,8.10
2022-11-03T12:27:43.972Z,6.70
2022-11-03T12:30:19.635Z,6.13
2022-11-03T12:32:49.437Z,9.00
2022-11-03T12:35:18.020Z,8.37
2022-11-03T12:37:46.792Z,6.83
2022-11-03T12:40:15.519Z,8.63
2022-11-03T12:42:43.758Z,6.57
2022-11-03T12:45:13.771Z,8.47
2022-11-03T12:47:42.287Z,7.30
2022-11-03T12:50:12.161Z,7.73
2022-11-03T12:52:40.394Z,6.80
2022-11-03T12:55:33.189Z,6.23
2022-11-03T12:58:03.165Z,6.23
2022-11-03T13:00:31.397Z,6.20
2022-11-03T13:02:59.602Z,4.57
2022-11-03T13:05:37.110Z,6.63
2022-11-03T13:08:05.605Z,6.73
2022-11-03T13:10:33.844Z,5.20
2022-11-03T13:13:02.037Z,5.00
2022-11-03T13:15:30.232Z,3.80
2022-11-03T13:18:12.840Z,6.03
2022-11-03T13:20:44.947Z,4.27
2022-11-03T13:23:15.278Z,5.97
2022-11-03T13:25:46.922Z,4.87
2022-11-03T13:28:15.268Z,5.83
2022-11-03T13:30:43.568Z,6.27
2022-11-03T13:33:11.772Z,5.67
2022-11-03T13:35:39.993Z,10.40
2022-11-03T13:38:09.614Z,7.50
2022-11-03T13:43:26.207Z,6.23
2022-11-03T13:45:54.400Z,7.80
2022-11-03T13:49:23.154Z,6.60
2022-11-03T13:51:12.241Z,5.33
2022-11-03T13:56:30.373Z,5.07
2022-11-03T14:01:47.854Z,6.40
2022-11-03T14:07:05.190Z,7.07
2022-11-03T14:12:26.302Z,7.53
2022-11-03T14:14:54.575Z,4.87
2022-11-03T14:17:22.804Z,7.37
2022-11-03T14:19:52.855Z,6.00
2022-11-03T14:22:22.074Z,6.40
2022-11-03T14:24:52.745Z,7.73
2022-11-03T14:27:21.341Z,5.90
2022-11-03T14:29:50.346Z,5.50
2022-11-03T14:32:19.937Z,6.80
2022-11-03T14:34:48.807Z,5.67
2022-11-03T14:37:17.241Z,7.53
2022-11-03T14:39:45.568Z,6.13
2022-11-03T14:42:15.980Z,7.97
2022-11-03T14:44:46.407Z,6.43
2022-11-03T14:47:17.588Z,5.77
2022-11-03T14:49:46.772Z,7.80
2022-11-03T14:52:15.994Z,5.37
2022-11-03T14:54:44.367Z,6.53
2022-11-03T14:57:13.865Z,7.20
2022-11-03T14:59:42.059Z,5.90
2022-11-03T15:02:11.482Z,6.43
2022-11-03T15:04:44.232Z,6.30
2022-11-03T15:07:12.374Z,6.87
2022-11-03T15:09:40.536Z,8.97
2022-11-03T15:12:09.211Z,18.17
2022-11-03T15:14:38.764Z,6.03
2022-11-03T15:17:06.923Z,9.53
2022-11-03T15:19:35.141Z,6.73
2022-11-03T15:22:03.417Z,8.53
2022-11-03T15:27:19.973Z,9.30
2022-11-03T15:29:49.593Z,7.37
2022-11-03T15:32:18.103Z,17.57
2022-11-03T15:34:46.431Z,6.90
2022-11-03T15:37:15.590Z,13.10
2022-11-03T15:39:43.821Z,6.63
2022-11-03T15:42:12.463Z,5.93
2022-11-03T15:44:40.835Z,6.20
2022-11-03T15:47:10.420Z,6.90
2022-11-03T15:49:42.595Z,7.40
2022-11-03T15:52:13.622Z,8.37
2022-11-03T15:54:45.812Z,15.10
2022-11-03T15:59:47.145Z,8.80
2022-11-03T16:02:42.431Z,13.13
2022-11-03T16:05:05.139Z,9.93
2022-11-03T16:07:33.663Z,14.70
2022-11-03T16:10:02.614Z,9.87
2022-11-03T16:12:30.906Z,9.63
2022-11-03T16:14:59.147Z,15.13
2022-11-03T16:17:28.691Z,16.53
2022-11-03T16:19:56.878Z,14.80
2022-11-03T16:22:25.059Z,23.27
2022-11-03T16:24:53.244Z,36.83
2022-11-03T16:27:21.428Z,41.97
2022-11-03T16:29:49.696Z,17.83
2022-11-03T16:32:17.904Z,39.70
2022-11-03T16:34:48.533Z,35.60
2022-11-03T16:37:16.763Z,30.50
2022-11-03T16:39:45.129Z,43.77
2022-11-03T16:42:13.343Z,34.40
2022-11-03T16:44:41.532Z,12.40
2022-11-03T16:47:09.737Z,13.83
2022-11-03T16:49:41.601Z,28.57
2022-11-03T16:52:11.158Z,35.90
2022-11-03T16:54:39.378Z,42.97
2022-11-03T16:57:07.603Z,42.17
2022-11-03T16:59:35.867Z,54.10
2022-11-03T17:02:04.157Z,87.80
2022-11-03T17:04:34.965Z,41.77
2022-11-03T17:07:03.224Z,39.47
2022-11-03T17:09:32.854Z,14.93
2022-11-03T17:12:01.053Z,20.93
2022-11-03T17:14:29.276Z,20.13
2022-11-03T17:17:00.193Z,11.67
2022-11-03T17:19:53.439Z,10.73
2022-11-03T17:22:22.348Z,9.30
2022-11-03T17:24:52.297Z,9.60
2022-11-03T17:27:24.859Z,8.43
2022-11-03T17:29:56.862Z,11.53
2022-11-03T17:32:28.576Z,9.60
2022-11-03T17:34:57.899Z,8.37
2022-11-03T17:37:27.896Z,10.87
2022-11-03T17:39:57.923Z,8.23
2022-11-03T17:42:27.471Z,10.43
2022-11-03T17:44:57.772Z,10.60
2022-11-03T17:47:26.512Z,11.73
2022-11-03T17:49:54.829Z,9.77
2022-11-03T17:52:28.640Z,8.73
2022-11-03T17:55:00.583Z,10.10
2022-11-03T17:57:29.899Z,9.73
2022-11-03T18:00:01.123Z,11.70
2022-11-03T18:02:56.776Z,9.13
2022-11-03T18:05:28.553Z,10.37
2022-11-03T18:07:57.558Z,10.67
2022-11-03T18:10:31.394Z,10.03
2022-11-03T18:13:17.615Z,9.47
2022-11-03T18:15:49.248Z,9.93
2022-11-03T18:18:22.278Z,9.07
2022-11-03T18:20:53.919Z,8.47
2022-11-03T18:23:25.184Z,9.77
2022-11-03T18:25:55.446Z,9.67
2022-11-03T18:28:24.090Z,7.53
2022-11-03T18:30:55.534Z,10.50
2022-11-03T18:33:26.489Z,7.90
2022-11-03T18:35:55.478Z,8.03
2022-11-03T18:38:25.178Z,9.87
2022-11-03T18:40:54.923Z,8.60
2022-11-03T18:43:25.895Z,10.10
2022-11-03T18:45:54.161Z,9.90
2022-11-03T18:48:24.027Z,9.63
2022-11-03T18:50:55.307Z,20.53
2022-11-03T18:53:26.024Z,63.60
2022-11-03T18:56:01.230Z,12.00
2022-11-03T18:58:29.655Z,15.57
2022-11-03T19:00:59.063Z,26.70
2022-11-03T19:03:27.796Z,17.23
2022-11-03T19:05:56.493Z,8.53
2022-11-03T19:08:27.532Z,19.73
2022-11-03T19:11:03.568Z,14.03
2022-11-03T19:13:35.351Z,9.87
2022-11-03T19:16:13.229Z,11.67
2022-11-03T19:18:42.862Z,11.27
2022-11-03T19:21:15.188Z,12.37
2022-11-03T19:23:47.781Z,9.83
2022-11-03T19:26:22.313Z,13.70
2022-11-03T19:28:55.609Z,15.27
2022-11-03T19:31:29.516Z,10.50
2022-11-03T19:33:58.867Z,10.57
2022-11-03T19:36:28.071Z,13.60
2022-11-03T19:38:56.453Z,11.93
2022-11-03T19:41:43.355Z,12.63
2022-11-03T19:44:14.668Z,10.53
2022-11-03T19:46:43.311Z,13.83
2022-11-03T19:49:15.221Z,15.17
2022-11-03T19:51:43.727Z,14.83
2022-11-03T19:54:17.577Z,13.23
2022-11-03T19:56:47.450Z,13.97
2022-11-03T19:59:17.897Z,16.53
2022-11-03T20:01:46.416Z,12.87
2022-11-03T20:04:14.810Z,16.97
2022-11-03T20:06:43.101Z,15.93
2022-11-03T20:09:18.390Z,23.17
2022-11-03T20:11:48.131Z,15.27
2022-11-03T20:14:23.743Z,14.33
2022-11-03T20:16:51.934Z,10.97
2022-11-03T20:19:20.513Z,11.80
2022-11-03T20:21:49.097Z,12.37
2022-11-03T20:24:19.439Z,11.27
2022-11-03T20:26:49.020Z,13.20
2022-11-03T20:29:17.905Z,9.83
2022-11-03T20:31:46.518Z,11.13
2022-11-03T20:34:15.951Z,11.50
2022-11-03T20:36:44.805Z,13.07
2022-11-03T20:39:16.549Z,17.77
2022-11-03T20:41:50.729Z,19.53
2022-11-03T20:44:19.099Z,34.77
2022-11-03T20:46:47.333Z,32.93
2022-11-03T20:49:15.614Z,54.87
2022-11-03T20:51:47.432Z,38.67
2022-11-03T20:54:19.029Z,30.77
2022-11-03T20:56:49.192Z,16.67
2022-11-03T20:59:18.612Z,15.03
2022-11-03T21:01:47.087Z,25.83
2022-11-03T21:04:21.852Z,30.83
2022-11-03T21:06:50.687Z,17.73
2022-11-03T21:09:22.061Z,11.90
2022-11-03T21:11:54.155Z,9.40
2022-11-03T21:14:26.282Z,11.80
2022-11-03T21:17:12.061Z,11.33
2022-11-03T21:19:57.207Z,11.80
2022-11-03T21:22:50.832Z,11.93
2022-11-03T21:25:21.712Z,11.30
2022-11-03T21:27:51.368Z,11.13
2022-11-03T21:30:20.390Z,10.90
2022-11-03T21:32:48.883Z,11.07
2022-11-03T21:35:23.131Z,10.57
2022-11-03T21:37:51.401Z,15.43
2022-11-03T21:40:19.748Z,12.80
2022-11-03T21:43:05.682Z,18.67
2022-11-03T21:45:35.951Z,15.20
2022-11-03T21:48:23.192Z,14.83
2022-11-03T21:50:51.908Z,12.90
2022-11-03T21:53:20.245Z,15.20
2022-11-03T21:55:49.557Z,20.63
2022-11-03T21:58:18.110Z,21.37
2022-11-03T22:00:47.886Z,13.33
2022-11-03T22:03:16.276Z,14.67
2022-11-03T22:05:44.585Z,13.63
2022-11-03T22:08:12.947Z,13.20
2022-11-03T22:10:41.597Z,15.83
2022-11-03T22:13:10.528Z,10.97
2022-11-03T22:15:56.893Z,12.23
2022-11-03T22:18:27.031Z,13.60
2022-11-03T22:21:12.777Z,10.03
2022-11-03T22:23:57.823Z,12.63
2022-11-03T22:26:43.920Z,15.93
2022-11-03T22:29:29.930Z,41.83
2022-11-03T22:32:02.289Z,12.23
2022-11-03T22:34:49.524Z,11.67
2022-11-03T22:37:17.754Z,15.50
2022-11-03T22:40:03.577Z,23.17
2022-11-03T22:42:49.579Z,28.30
2022-11-03T22:45:35.774Z,26.80
2022-11-03T22:48:05.069Z,16.50
2022-11-03T22:50:35.761Z,11.10
2022-11-03T22:53:23.983Z,7.70
2022-11-03T22:55:51.483Z,13.20
2022-11-03T22:58:20.190Z,10.77
2022-11-03T23:00:48.499Z,11.57
2022-11-03T23:03:16.754Z,11.27
2022-11-03T23:05:46.303Z,10.90
2022-11-03T23:08:14.736Z,8.17
2022-11-03T23:10:42.930Z,11.57
2022-11-03T23:13:11.364Z,10.77
2022-11-03T23:15:43.601Z,7.93
2022-11-03T23:18:29.642Z,11.47
2022-11-03T23:21:08.066Z,13.30
2022-11-03T23:23:55.149Z,10.90
2022-11-03T23:26:25.640Z,8.10
2022-11-03T23:28:54.502Z,6.73
2022-11-03T23:31:23.072Z,5.90
2022-11-03T23:33:51.462Z,6.87
2022-11-03T23:36:21.042Z,7.17
2022-11-03T23:38:49.230Z,5.53
2022-11-03T23:41:19.482Z,5.77
2022-11-03T23:43:48.431Z,6.37
2022-11-03T23:46:36.774Z,4.33
2022-11-03T23:49:05.597Z,6.30
2022-11-03T23:51:37.246Z,5.23
2022-11-03T23:54:08.399Z,10.53
2022-11-03T23:56:56.153Z,3.77
2022-11-03T23:59:25.662Z,3.80
